Norfolk, Virginia
Traffic Map
Current Weather Conditions
Norfolk, Virginia
Clear
Clear
55°
Feels Like: 55°
Wind Chill: 55° Ceiling: Unl
Heat Index: 55° Visibility: 10mi
Dew Point: 30° Wind: 12mph
Humidity: 38% Direction: 260° (W)
Pressure: 30.04in Gusts: 17mph
Raw Report DataKORF 021851Z 26010G15KT 10SM CLR 13/M01 A3004 RMK AO2 SLP170 T01281011
Traffic Incident Summary
Active as of:
Severity:
Category:
InformationThere was an issue retrieving the traffic information for this location. Please try a different location or try again shortly.
Advertisements
Track Severe Weather on mobile